Time;durP1;ratioP1;P1;durP2;ratioP2;P2;SDS_P1;SDS_P2;PMS_P1;PMS_P2;Temp;Humidity;BMP_temperature;BMP_pressure;BME280_temperature;BME280_humidity;BME280_pressure;Samples;Min_cycle;Max_cycle;Signal;HPM_P1;HPM_P2
2022/02/08 00:01:27;;;;;;;;;;;;;;;23.59;22.36;96697.75;4977035;28;945;-71
2022/02/08 00:03:53;;;;;;;;;;;;;;;23.46;22.68;96697.25;4976436;28;1053;-71
2022/02/08 00:06:36;;;;;;;;;;;;;;;23.38;22.56;96691.19;4976573;28;1174;-72
2022/02/08 00:09:02;;;;;;;;;;;;;;;23.20;22.74;96702.72;4976805;28;1010;-72
2022/02/08 00:11:27;;;;;;;;;;;;;;;23.30;22.60;96695.69;4962207;28;1749;-71
2022/02/08 00:13:53;;;;;;;;;;;;;;;23.38;22.51;96701.78;4957349;29;1922;-71
2022/02/08 00:16:18;;;;;;;;;;;;;;;23.53;22.25;96707.47;4956912;29;1043;-71
2022/02/08 00:18:44;;;;;;;;;;;;;;;23.07;22.98;96705.84;4957693;28;987;-72
2022/02/08 00:21:09;;;;;;;;;;;;;;;23.19;23.09;96706.06;4957352;29;1016;-71
2022/02/08 00:23:35;;;;;;;;;;;;;;;23.38;22.44;96705.41;4957395;29;964;-72
2022/02/08 00:26:00;;;;;;;;;;;;;;;23.26;22.73;96706.47;4961249;28;1822;-71
2022/02/08 00:28:26;;;;;;;;;;;;;;;23.24;22.56;96711.84;4976219;28;1054;-71
2022/02/08 00:30:51;;;;;;;;;;;;;;;23.37;22.43;96706.69;4956651;28;1132;-72
2022/02/08 00:33:16;;;;;;;;;;;;;;;23.31;22.76;96717.16;4940842;29;1983;-71
2022/02/08 00:35:42;;;;;;;;;;;;;;;23.48;22.26;96716.66;4927052;29;1671;-71
2022/02/08 00:38:07;;;;;;;;;;;;;;;23.49;22.21;96718.22;4961457;28;1686;-71
2022/02/08 00:40:33;;;;;;;;;;;;;;;23.20;22.75;96716.91;4976181;28;1318;-71
2022/02/08 00:43:00;;;;;;;;;;;;;;;23.35;22.33;96712.03;4976187;28;906;-71
2022/02/08 00:45:47;;;;;;;;;;;;;;;23.26;22.55;96723.50;4976005;28;1054;-71
2022/02/08 00:48:28;;;;;;;;;;;;;;;23.07;22.52;96722.09;4924039;29;1815;-71
2022/02/08 00:50:54;;;;;;;;;;;;;;;23.30;22.49;96729.75;4956548;29;1251;-71
2022/02/08 00:53:20;;;;;;;;;;;;;;;23.72;21.76;96731.56;4937265;29;1977;-72
2022/02/08 00:55:46;;;;;;;;;;;;;;;23.45;22.13;96741.13;4937477;29;1012;-71
2022/02/08 00:58:12;;;;;;;;;;;;;;;23.18;22.81;96755.56;4899263;29;1185;-71
2022/02/08 01:00:37;;;;;;;;;;;;;;;23.01;22.71;96758.09;4886980;29;1854;-75
2022/02/08 01:03:03;;;;;;;;;;;;;;;23.06;22.71;96754.56;4898867;29;960;-72
2022/02/08 01:05:29;;;;;;;;;;;;;;;23.31;22.32;96753.22;4899313;29;1028;-71
2022/02/08 01:07:54;;;;;;;;;;;;;;;23.18;22.53;96761.25;4899310;29;1069;-71
2022/02/08 01:10:22;;;;;;;;;;;;;;;22.88;22.85;96756.25;4899101;29;1031;-71
2022/02/08 01:12:49;;;;;;;;;;;;;;;22.69;23.15;96765.34;4898828;29;1992;-71
2022/02/08 01:15:15;;;;;;;;;;;;;;;22.93;22.98;96762.53;4899229;29;1045;-72
2022/02/08 01:17:42;;;;;;;;;;;;;;;23.56;22.38;96768.94;4913191;29;1721;-72
2022/02/08 01:20:13;;;;;;;;;;;;;;;23.60;22.16;96766.69;4937180;29;1001;-72
2022/02/08 01:22:40;;;;;;;;;;;;;;;23.01;22.75;96763.75;4906174;29;1395;-72
2022/02/08 01:25:07;;;;;;;;;;;;;;;23.16;22.56;96770.25;4917672;29;1121;-71
2022/02/08 01:27:39;;;;;;;;;;;;;;;23.51;22.09;96773.22;4917381;29;1012;-71
2022/02/08 01:30:13;;;;;;;;;;;;;;;23.44;22.21;96781.38;4901336;29;978;-72
2022/02/08 01:35:53;;;;;;;;;;;;;;;22.80;22.96;96771.28;4898611;29;1748;-71
2022/02/08 01:38:23;;;;;;;;;;;;;;;23.14;22.78;96761.44;4897965;29;1352;-71
2022/02/08 01:43:42;;;;;;;;;;;;;;;23.29;22.22;96773.59;4884500;29;1057;-71
2022/02/08 01:48:51;;;;;;;;;;;;;;;23.00;22.59;96756.50;4898357;29;1329;-71
2022/02/08 01:51:17;;;;;;;;;;;;;;;23.29;22.18;96762.25;4894171;29;1700;-72
2022/02/08 01:53:42;;;;;;;;;;;;;;;23.39;22.30;96758.06;4917295;29;1965;-72
2022/02/08 01:56:08;;;;;;;;;;;;;;;23.49;21.94;96757.97;4917505;29;1027;-71
2022/02/08 01:58:35;;;;;;;;;;;;;;;23.36;21.93;96761.06;4888638;29;1224;-71
2022/02/08 02:01:12;;;;;;;;;;;;;;;23.09;22.59;96747.91;4863942;29;1807;-71
2022/02/08 02:03:40;;;;;;;;;;;;;;;22.91;22.69;96759.41;4861122;29;1658;-71
2022/02/08 02:06:06;;;;;;;;;;;;;;;22.89;22.65;96768.38;4860995;29;1333;-71
2022/02/08 02:08:31;;;;;;;;;;;;;;;23.22;22.29;96765.47;4862102;29;1739;-72
2022/02/08 02:10:59;;;;;;;;;;;;;;;23.39;22.05;96774.31;4879420;29;1209;-72
2022/02/08 02:16:07;;;;;;;;;;;;;;;23.53;22.04;96792.63;4864041;29;1211;-72
2022/02/08 02:18:33;;;;;;;;;;;;;;;23.42;21.90;96793.22;4867098;29;1077;-71
2022/02/08 02:21:00;;;;;;;;;;;;;;;23.25;22.09;96790.03;4901111;29;1417;-71
2022/02/08 02:23:25;;;;;;;;;;;;;;;22.82;22.53;96803.53;4900823;29;1776;-72
2022/02/08 02:25:51;;;;;;;;;;;;;;;22.97;22.52;96797.19;4916892;29;1300;-72
2022/02/08 02:28:17;;;;;;;;;;;;;;;23.35;21.96;96788.69;4901032;29;1670;-71
2022/02/08 02:30:42;;;;;;;;;;;;;;;23.79;21.34;96799.34;4901137;29;1149;-71
2022/02/08 02:33:08;;;;;;;;;;;;;;;23.22;21.99;96801.56;4897964;29;1879;-71
2022/02/08 02:35:34;;;;;;;;;;;;;;;22.84;22.43;96803.84;4882383;29;1432;-71
2022/02/08 02:38:03;;;;;;;;;;;;;;;22.84;22.63;96812.34;4901782;29;1220;-71
2022/02/08 02:40:31;;;;;;;;;;;;;;;23.32;22.24;96812.38;4916678;29;1579;-72
2022/02/08 02:42:57;;;;;;;;;;;;;;;23.46;21.82;96815.72;4916313;29;1579;-71
2022/02/08 02:45:23;;;;;;;;;;;;;;;23.51;21.76;96812.19;4901095;29;1228;-72
2022/02/08 02:47:51;;;;;;;;;;;;;;;23.16;22.08;96812.81;4901314;29;1203;-71
2022/02/08 02:50:17;;;;;;;;;;;;;;;22.90;22.36;96823.06;4931787;28;1278;-72
2022/02/08 02:52:43;;;;;;;;;;;;;;;22.86;22.52;96824.00;4974067;28;1975;-71
2022/02/08 02:55:10;;;;;;;;;;;;;;;23.25;22.07;96818.41;4958021;28;1682;-71
2022/02/08 02:57:36;;;;;;;;;;;;;;;23.28;22.26;96814.59;4973531;28;1717;-72
2022/02/08 03:00:10;;;;;;;;;;;;;;;23.32;21.91;96823.72;4973906;28;1322;-72
2022/02/08 03:05:31;;;;;;;;;;;;;;;23.02;22.25;96822.06;4911670;29;1321;-71
2022/02/08 03:18:54;;;;;;;;;;;;;;;23.52;21.53;96853.50;4916358;29;1226;-72
2022/02/08 03:21:19;;;;;;;;;;;;;;;23.17;22.07;96837.09;4932143;29;1752;-72
2022/02/08 03:23:45;;;;;;;;;;;;;;;22.79;22.72;96841.38;4934757;29;1133;-72
2022/02/08 03:26:11;;;;;;;;;;;;;;;22.91;22.38;96842.47;4935872;29;1180;-71
2022/02/08 03:28:52;;;;;;;;;;;;;;;23.72;21.54;96856.53;4935444;29;1665;-71
2022/02/08 03:31:23;;;;;;;;;;;;;;;23.75;21.08;96855.56;4916596;29;1319;-71
2022/02/08 03:33:49;;;;;;;;;;;;;;;23.21;21.68;96868.09;4916465;29;1906;-71
2022/02/08 03:36:16;;;;;;;;;;;;;;;22.88;22.25;96869.72;4900964;29;1212;-71
2022/02/08 03:38:48;;;;;;;;;;;;;;;22.86;22.25;96866.56;4947324;29;1784;-71
2022/02/08 03:41:15;;;;;;;;;;;;;;;23.39;21.83;96874.44;4941690;29;1591;-71
2022/02/08 03:43:45;;;;;;;;;;;;;;;23.29;21.69;96875.78;4957932;28;1032;-71
2022/02/08 03:46:15;;;;;;;;;;;;;;;23.52;21.71;96864.88;4941887;29;1516;-72
2022/02/08 03:48:43;;;;;;;;;;;;;;;23.46;21.47;96884.63;4957691;28;1372;-72
2022/02/08 03:51:14;;;;;;;;;;;;;;;23.12;21.71;96883.16;4941647;29;1594;-71
2022/02/08 03:53:55;;;;;;;;;;;;;;;22.95;22.31;96890.47;4935425;29;1986;-71
2022/02/08 03:56:30;;;;;;;;;;;;;;;22.91;22.11;96895.56;4919322;29;1511;-71
2022/02/08 03:59:00;;;;;;;;;;;;;;;23.30;21.58;96899.25;4935299;29;1080;-72
2022/02/08 04:06:44;;;;;;;;;;;;;;;23.21;21.52;96908.63;4935096;29;1699;-71
2022/02/08 04:09:10;;;;;;;;;;;;;;;22.96;21.85;96904.19;4938285;29;996;-71
2022/02/08 04:11:52;;;;;;;;;;;;;;;22.83;22.37;96915.72;4938041;29;1024;-72
2022/02/08 04:14:29;;;;;;;;;;;;;;;23.49;21.27;96916.97;4937628;29;1976;-71
2022/02/08 04:16:59;;;;;;;;;;;;;;;23.46;21.48;96913.03;4953425;28;968;-71
2022/02/08 04:19:31;;;;;;;;;;;;;;;23.49;21.16;96922.63;4972625;28;1013;-71
2022/02/08 04:40:46;;;;;;;;;;;;;;;22.98;21.74;96934.91;4995563;28;1057;-71
2022/02/08 04:45:55;;;;;;;;;;;;;;;23.33;21.15;96933.16;4995427;28;957;-71
2022/02/08 04:51:31;;;;;;;;;;;;;;;23.52;21.11;96933.00;4995473;28;977;-71
2022/02/08 04:54:01;;;;;;;;;;;;;;;23.06;21.59;96919.91;4979777;28;1965;-72
2022/02/08 04:59:33;;;;;;;;;;;;;;;23.19;21.28;96925.34;4975790;28;1139;-72
2022/02/08 05:41:50;;;;;;;;;;;;;;;23.52;20.97;96979.25;4955740;29;1108;-71
2022/02/08 05:44:31;;;;;;;;;;;;;;;23.31;21.05;96983.94;4955577;29;965;-71
2022/02/08 05:46:57;;;;;;;;;;;;;;;22.94;21.45;96979.69;4986745;28;1012;-71
2022/02/08 05:49:25;;;;;;;;;;;;;;;22.93;21.39;96995.13;4968488;28;1011;-71
2022/02/08 05:54:17;;;;;;;;;;;;;;;23.54;20.57;97015.66;4935837;29;1906;-72
2022/02/08 05:56:42;;;;;;;;;;;;;;;23.71;20.51;97030.25;4917048;29;1020;-71
2022/02/08 05:59:08;;;;;;;;;;;;;;;23.56;20.79;97041.53;4917093;29;1065;-72
2022/02/08 06:01:33;;;;;;;;;;;;;;;23.29;20.55;97037.56;4917288;29;973;-71
2022/02/08 06:04:15;;;;;;;;;;;;;;;23.07;20.94;97054.03;4901437;29;1073;-72
2022/02/08 06:06:41;;;;;;;;;;;;;;;22.91;21.43;97048.75;4898513;29;985;-71
2022/02/08 06:09:06;;;;;;;;;;;;;;;23.08;21.03;97061.28;4867093;29;1006;-72
2022/02/08 06:11:35;;;;;;;;;;;;;;;23.29;20.82;97050.97;4898573;29;1066;-71
2022/02/08 06:14:03;;;;;;;;;;;;;;;23.46;20.40;97057.81;4898145;29;1911;-71
2022/02/08 06:16:28;;;;;;;;;;;;;;;23.59;20.44;97063.28;4860817;29;1135;-72
2022/02/08 06:18:54;;;;;;;;;;;;;;;23.55;20.48;97062.66;4860787;29;1203;-71
2022/02/08 06:21:19;;;;;;;;;;;;;;;23.46;20.57;97062.72;4894580;29;1072;-72
2022/02/08 06:23:44;;;;;;;;;;;;;;;23.34;20.49;97053.94;4879529;29;1363;-71
2022/02/08 06:26:14;;;;;;;;;;;;;;;23.01;20.96;97070.16;4878379;29;1010;-72
2022/02/08 06:28:40;;;;;;;;;;;;;;;23.10;21.11;97072.94;4861085;29;1069;-71
2022/02/08 06:31:05;;;;;;;;;;;;;;;23.26;20.90;97075.44;4860651;29;1238;-71
2022/02/08 06:33:32;;;;;;;;;;;;;;;23.43;20.60;97080.72;4860715;29;1973;-73
2022/02/08 06:35:58;;;;;;;;;;;;;;;23.56;20.22;97089.78;4879261;29;1037;-71
2022/02/08 06:38:23;;;;;;;;;;;;;;;23.60;20.41;97094.03;4894470;29;1136;-71
2022/02/08 06:40:52;;;;;;;;;;;;;;;23.36;20.58;97105.34;4898206;29;1070;-71
2022/02/08 06:43:20;;;;;;;;;;;;;;;23.06;20.94;97097.88;4897875;29;1164;-71
2022/02/08 06:45:46;;;;;;;;;;;;;;;22.85;21.09;97103.25;4898211;29;1088;-71
2022/02/08 06:48:11;;;;;;;;;;;;;;;22.95;21.00;97118.22;4928103;29;1054;-71
2022/02/08 06:50:37;;;;;;;;;;;;;;;23.17;20.92;97123.69;4966156;28;1029;-72
2022/02/08 06:53:02;;;;;;;;;;;;;;;23.22;20.90;97123.06;4973827;28;1980;-72
2022/02/08 06:55:28;;;;;;;;;;;;;;;23.49;20.53;97138.41;4974175;28;1162;-72
2022/02/08 06:58:08;;;;;;;;;;;;;;;23.47;20.36;97141.75;4975564;28;966;-72
2022/02/08 07:00:37;;;;;;;;;;;;;;;23.55;20.31;97142.19;4978409;28;935;-72
2022/02/08 07:03:03;;;;;;;;;;;;;;;23.51;20.10;97133.81;4978017;28;949;-72
2022/02/08 07:05:29;;;;;;;;;;;;;;;23.03;20.80;97130.03;4939487;29;1559;-72
2022/02/08 07:07:54;;;;;;;;;;;;;;;22.96;21.08;97138.88;4922405;29;998;-72
2022/02/08 07:10:20;;;;;;;;;;;;;;;23.49;20.25;97139.19;4920211;29;1029;-72
2022/02/08 07:12:45;;;;;;;;;;;;;;;23.61;19.90;97140.25;4917814;29;1903;-72
2022/02/08 07:15:14;;;;;;;;;;;;;;;23.59;19.98;97148.47;4920190;29;988;-72
2022/02/08 07:17:42;;;;;;;;;;;;;;;23.33;20.17;97148.09;4920466;29;999;-72
2022/02/08 07:20:08;;;;;;;;;;;;;;;23.13;20.58;97162.78;4920130;29;928;-72
2022/02/08 07:22:33;;;;;;;;;;;;;;;22.94;21.08;97156.34;4971645;28;1092;-72
2022/02/08 07:24:59;;;;;;;;;;;;;;;23.02;20.82;97151.16;4971667;28;1195;-72
2022/02/08 07:27:25;;;;;;;;;;;;;;;23.34;20.21;97147.59;4975925;28;1049;-72
2022/02/08 07:29:52;;;;;;;;;;;;;;;23.38;20.47;97156.75;4977615;28;965;-72
2022/02/08 07:32:19;;;;;;;;;;;;;;;23.50;20.05;97145.66;4977652;28;1073;-72
2022/02/08 07:34:52;;;;;;;;;;;;;;;23.66;20.00;97148.16;4961392;28;1993;-72
2022/02/08 07:37:31;;;;;;;;;;;;;;;23.27;20.45;97150.78;5007593;28;1363;-72
2022/02/08 07:40:02;;;;;;;;;;;;;;;22.88;20.61;97159.03;5038405;28;1029;-72
2022/02/08 07:42:27;;;;;;;;;;;;;;;22.77;20.72;97141.69;5038230;28;1010;-71
2022/02/08 07:44:53;;;;;;;;;;;;;;;23.04;20.57;97134.44;5038492;28;908;-72
2022/02/08 07:47:23;;;;;;;;;;;;;;;23.22;20.24;97137.25;5020419;28;1245;-71
2022/02/08 07:49:49;;;;;;;;;;;;;;;23.35;20.22;97134.19;5038179;28;929;-72
2022/02/08 07:52:14;;;;;;;;;;;;;;;23.63;19.89;97151.97;5037838;28;993;-72
2022/02/08 07:54:41;;;;;;;;;;;;;;;23.54;19.92;97155.59;5020223;28;1906;-71
2022/02/08 07:57:07;;;;;;;;;;;;;;;22.94;20.76;97150.69;5038263;28;911;-71
2022/02/08 07:59:32;;;;;;;;;;;;;;;22.85;20.71;97154.31;5003291;28;1054;-72
2022/02/08 08:01:58;;;;;;;;;;;;;;;22.85;20.47;97145.00;5038443;28;1001;-71
2022/02/08 08:04:26;;;;;;;;;;;;;;;23.16;20.28;97150.50;5020289;28;1076;-71
2022/02/08 08:06:52;;;;;;;;;;;;;;;23.30;19.96;97155.50;5037658;28;902;-71
2022/02/08 08:09:18;;;;;;;;;;;;;;;23.46;20.08;97159.22;5037790;28;944;-71
2022/02/08 08:11:45;;;;;;;;;;;;;;;23.53;19.70;97167.44;5037988;28;1014;-72
2022/02/08 08:14:12;;;;;;;;;;;;;;;23.65;19.61;97175.78;5304282;22;3859;-73
2022/02/08 08:21:29;;;;;;;;;;;;;;;23.17;20.06;97169.09;5078272;28;771;-73
2022/02/08 08:23:54;;;;;;;;;;;;;;;23.13;20.29;97174.16;5078009;28;925;-73
2022/02/08 08:29:46;;;;;;;;;;;;;;;23.75;19.16;97168.00;5023287;23;2034;-72
2022/02/08 08:32:11;;;;;;;;;;;;;;;23.45;19.66;97186.06;4957470;29;992;-71
2022/02/08 08:34:37;;;;;;;;;;;;;;;23.14;19.93;97172.88;4995936;28;1910;-71
2022/02/08 08:37:03;;;;;;;;;;;;;;;23.04;19.86;97194.78;4957273;29;965;-71
2022/02/08 08:39:37;;;;;;;;;;;;;;;23.31;19.63;97185.47;4941351;29;999;-71
2022/02/08 08:50:53;;;;;;;;;;;;;;;23.18;20.02;97193.38;4881604;29;1043;-72
2022/02/08 08:53:18;;;;;;;;;;;;;;;22.94;20.21;97196.06;4881339;29;1910;-72
2022/02/08 08:55:44;;;;;;;;;;;;;;;23.01;20.25;97194.97;4865908;29;902;-72
2022/02/08 08:58:09;;;;;;;;;;;;;;;22.95;20.52;97197.66;4881423;29;1037;-71
2022/02/08 09:00:35;;;;;;;;;;;;;;;23.10;20.28;97203.47;4881463;29;1116;-73
2022/02/08 09:03:00;;;;;;;;;;;;;;;23.11;20.45;97222.09;4872842;29;919;-72
2022/02/08 09:05:26;;;;;;;;;;;;;;;23.64;19.79;97231.00;4878527;29;1001;-72
2022/02/08 09:07:51;;;;;;;;;;;;;;;23.59;19.75;97230.81;4915853;29;967;-72
2022/02/08 09:15:44;;;;;;;;;;;;;;;24.27;19.13;97273.84;5145601;23;3592;-74
2022/02/08 09:23:39;;;;;;;;;;;;;;;23.08;21.05;97274.09;4995795;28;974;-75
2022/02/08 09:26:28;;;;;;;;;;;;;;;23.20;20.70;97293.00;4995713;28;932;-73
2022/02/08 09:28:57;;;;;;;;;;;;;;;23.51;20.23;97295.66;4995181;28;962;-74
2022/02/08 09:31:22;;;;;;;;;;;;;;;23.42;20.48;97283.56;4995140;28;971;-73
2022/02/08 09:33:48;;;;;;;;;;;;;;;23.64;20.19;97287.00;4995558;28;1997;-73
2022/02/08 09:36:14;;;;;;;;;;;;;;;23.64;20.20;97287.00;4940389;29;1140;-74
2022/02/08 09:38:40;;;;;;;;;;;;;;;23.46;20.51;97287.00;4940746;29;830;-74
2022/02/08 09:41:05;;;;;;;;;;;;;;;23.35;20.52;97274.06;4956616;29;999;-73
2022/02/08 09:43:31;;;;;;;;;;;;;;;23.28;20.75;97288.59;4918476;29;1068;-73
2022/02/08 09:45:58;;;;;;;;;;;;;;;23.29;20.89;97283.72;4918239;29;1147;-74
2022/02/08 09:48:36;;;;;;;;;;;;;;;23.37;20.50;97282.94;4899251;29;926;-74
2022/02/08 09:51:02;;;;;;;;;;;;;;;23.50;20.51;97293.31;4891838;29;1067;-74
2022/02/08 09:53:32;;;;;;;;;;;;;;;23.44;20.73;97281.03;4862176;29;1915;-74
2022/02/08 09:55:58;;;;;;;;;;;;;;;23.44;20.54;97283.84;4859135;29;1022;-74
2022/02/08 09:58:23;;;;;;;;;;;;;;;23.33;21.06;97285.13;4862166;29;948;-74
2022/02/08 10:00:49;;;;;;;;;;;;;;;23.31;21.02;97290.50;4862113;29;1033;-73
2022/02/08 10:03:18;;;;;;;;;;;;;;;23.04;21.28;97284.81;4877896;29;1028;-73
2022/02/08 10:05:44;;;;;;;;;;;;;;;23.56;20.67;97294.25;4880568;29;996;-74
2022/02/08 10:08:09;;;;;;;;;;;;;;;23.35;20.99;97298.84;4896840;29;1013;-74
2022/02/08 10:10:35;;;;;;;;;;;;;;;22.99;21.13;97288.28;4898961;29;928;-73
2022/02/08 10:13:15;;;;;;;;;;;;;;;22.96;21.22;97294.91;4898839;29;1911;-72
2022/02/08 10:24:02;;;;;;;;;;;;;;;23.73;20.34;97300.41;4936672;29;1027;-72
2022/02/08 10:26:38;;;;;;;;;;;;;;;23.57;20.49;97318.53;4936980;29;979;-73
2022/02/08 10:29:10;;;;;;;;;;;;;;;23.13;20.79;97316.03;4943796;29;1049;-73
2022/02/08 10:40:01;;;;;;;;;;;;;;;23.49;20.51;97314.47;4959689;29;1035;-73
2022/02/08 10:42:28;;;;;;;;;;;;;;;23.53;20.04;97323.59;4959661;29;1044;-73
2022/02/08 10:44:54;;;;;;;;;;;;;;;23.08;20.72;97331.63;4959900;29;1101;-73
2022/02/08 10:47:31;;;;;;;;;;;;;;;22.65;21.24;97338.31;4959622;29;953;-72
2022/02/08 10:49:56;;;;;;;;;;;;;;;22.92;20.71;97351.00;4959749;29;1022;-72
2022/02/08 10:52:25;;;;;;;;;;;;;;;23.58;20.16;97345.69;4959522;29;984;-72
2022/02/08 10:54:51;;;;;;;;;;;;;;;23.61;19.83;97356.09;4949204;28;1911;-72
2022/02/08 10:57:26;;;;;;;;;;;;;;;23.59;19.76;97352.94;4962880;28;913;-72
2022/02/08 10:59:57;;;;;;;;;;;;;;;23.21;20.19;97357.03;4964197;28;1015;-72
2022/02/08 11:02:29;;;;;;;;;;;;;;;23.01;20.43;97354.66;4978600;28;983;-72
2022/02/08 11:05:14;;;;;;;;;;;;;;;23.10;20.37;97356.69;4978801;28;775;-73
2022/02/08 11:15:58;;;;;;;;;;;;;;;23.72;19.53;97362.09;5019532;28;1314;-73
2022/02/08 11:21:45;;;;;;;;;;;;;;;22.95;20.17;97364.22;4939906;29;1427;-73
2022/02/08 11:24:06;;;;;;;;;;;;;;;22.95;20.19;97345.19;4933042;29;1298;-73
2022/02/08 11:26:36;;;;;;;;;;;;;;;23.38;19.62;97355.47;4939603;29;1304;-73
2022/02/08 11:29:44;;;;;;;;;;;;;;;23.63;19.59;97342.25;4939292;29;1371;-73
2022/02/08 11:51:33;;;;;;;;;;;;;;;23.37;19.28;97291.44;4898670;29;1014;-73
2022/02/08 12:09:26;;;;;;;;;;;;;;;23.48;19.03;97352.63;4809999;29;1160;-74
2022/02/08 12:12:10;;;;;;;;;;;;;;;23.45;19.29;97348.69;4819441;29;1004;-73
2022/02/08 12:33:19;;;;;;;;;;;;;;;23.49;18.96;97393.97;4863760;29;1911;-73
2022/02/08 12:54:24;;;;;;;;;;;;;;;23.46;18.85;97417.59;4975248;28;1906;-73
2022/02/08 12:57:24;;;;;;;;;;;;;;;23.44;19.01;97434.34;4978831;28;934;-74
2022/02/08 13:03:05;;;;;;;;;;;;;;;23.18;19.13;97442.34;4918805;29;956;-72
2022/02/08 14:02:01;;;;;;;;;;;;;;;23.38;18.60;97497.41;4956362;29;1069;-72
2022/02/08 14:07:12;;;;;;;;;;;;;;;23.24;18.62;97503.69;4955874;28;940;-72
2022/02/08 14:14:55;;;;;;;;;;;;;;;23.04;19.00;97523.16;4880284;29;2055;-72
2022/02/08 14:20:15;;;;;;;;;;;;;;;23.32;18.84;97535.41;4876951;29;981;-72
2022/02/08 14:30:29;;;;;;;;;;;;;;;23.37;18.33;97557.50;4880122;29;1407;-72
2022/02/08 14:33:12;;;;;;;;;;;;;;;23.41;18.58;97569.50;4880385;29;1923;-72
2022/02/08 14:36:02;;;;;;;;;;;;;;;23.01;18.79;97563.81;4880221;29;1042;-72
2022/02/08 14:57:29;;;;;;;;;;;;;;;23.37;18.30;97583.84;4907498;29;1008;-72
2022/02/08 14:58:52;;;;;;;;;;;;;;;22.76;18.98;97605.25;4955795;29;1069;-72
2022/02/08 15:05:48;;;;;;;;;;;;;;;23.39;18.23;97623.91;4994185;28;955;-72
2022/02/08 15:10:44;;;;;;;;;;;;;;;23.06;18.48;97640.63;4996866;28;951;-72
2022/02/08 15:13:11;;;;;;;;;;;;;;;22.79;19.06;97649.69;4996613;28;1981;-72
2022/02/08 15:18:21;;;;;;;;;;;;;;;23.08;18.80;97648.66;4997050;28;939;-72
2022/02/08 15:20:47;;;;;;;;;;;;;;;23.30;18.36;97672.13;5000148;28;1088;-72
2022/02/08 15:23:15;;;;;;;;;;;;;;;23.40;18.13;97670.13;5000200;28;968;-72
2022/02/08 15:25:40;;;;;;;;;;;;;;;23.41;18.34;97688.75;5000151;28;1030;-72
2022/02/08 15:28:06;;;;;;;;;;;;;;;23.16;18.55;97689.72;4999998;28;873;-72
2022/02/08 15:30:32;;;;;;;;;;;;;;;22.78;18.77;97690.66;5000347;28;937;-72
2022/02/08 15:32:58;;;;;;;;;;;;;;;22.69;18.98;97689.78;4999630;28;1972;-72
2022/02/08 15:35:23;;;;;;;;;;;;;;;22.96;18.63;97684.38;4965851;28;1117;-72
2022/02/08 15:37:50;;;;;;;;;;;;;;;23.30;18.36;97700.50;4999813;28;942;-72
2022/02/08 15:40:16;;;;;;;;;;;;;;;23.30;18.48;97703.34;4999881;28;923;-72
2022/02/08 15:42:42;;;;;;;;;;;;;;;23.23;18.34;97700.81;4999536;28;1021;-72
2022/02/08 15:45:17;;;;;;;;;;;;;;;23.17;18.33;97705.50;4999503;28;1057;-72
2022/02/08 15:47:43;;;;;;;;;;;;;;;23.10;18.41;97705.75;4983867;28;935;-71
2022/02/08 15:50:14;;;;;;;;;;;;;;;22.87;18.85;97702.09;4999454;28;931;-72
2022/02/08 15:55:29;;;;;;;;;;;;;;;23.33;18.14;97713.00;4999831;28;1961;-72
2022/02/08 16:24:52;;;;;;;;;;;;;;;22.74;19.08;97755.25;4938426;29;972;-73
2022/02/08 16:27:29;;;;;;;;;;;;;;;23.16;18.51;97746.50;4938947;29;998;-73
2022/02/08 16:59:16;;;;;;;;;;;;;;;23.39;18.06;97763.03;4938430;29;1079;-72
2022/02/08 17:01:42;;;;;;;;;;;;;;;23.10;18.69;97771.00;4938219;29;981;-73
2022/02/08 17:04:09;;;;;;;;;;;;;;;22.78;18.77;97772.13;4938016;29;932;-73
2022/02/08 17:06:34;;;;;;;;;;;;;;;22.68;18.80;97768.41;4938248;29;1067;-72
2022/02/08 17:09:07;;;;;;;;;;;;;;;23.00;18.81;97766.53;4937784;29;988;-72
2022/02/08 17:11:48;;;;;;;;;;;;;;;23.30;18.19;97767.84;4938080;29;1009;-73
2022/02/08 17:14:37;;;;;;;;;;;;;;;23.37;18.39;97768.41;4937991;29;1914;-72
2022/02/08 17:45:08;;;;;;;;;;;;;;;22.93;18.71;97817.84;4996759;28;922;-73
2022/02/08 17:47:15;;;;;;;;;;;;;;;23.25;18.03;97850.78;4997204;28;1227;-73
2022/02/08 17:49:37;;;;;;;;;;;;;;;23.35;18.04;97856.06;4997344;28;917;-72
2022/02/08 17:52:03;;;;;;;;;;;;;;;23.53;17.95;97883.03;4975564;28;964;-72
2022/02/08 17:54:33;;;;;;;;;;;;;;;22.98;18.55;97893.88;4975751;28;1914;-72
2022/02/08 17:56:59;;;;;;;;;;;;;;;22.80;18.59;97897.31;4943020;28;1326;-72
2022/02/08 17:59:25;;;;;;;;;;;;;;;23.12;18.32;97899.88;4975773;28;988;-72
2022/02/08 18:01:52;;;;;;;;;;;;;;;23.52;17.67;97909.84;4975598;28;974;-72
2022/02/08 18:04:18;;;;;;;;;;;;;;;23.51;18.01;97888.38;4975379;28;1120;-73
2022/02/08 18:06:44;;;;;;;;;;;;;;;23.32;18.17;97901.63;4975683;28;1202;-72
2022/02/08 18:09:09;;;;;;;;;;;;;;;23.12;18.40;97913.28;4943527;28;1034;-73
2022/02/08 18:11:39;;;;;;;;;;;;;;;22.76;18.78;97911.59;4975588;28;1019;-73
2022/02/08 18:14:08;;;;;;;;;;;;;;;22.84;18.44;97904.41;4975525;28;1973;-73
2022/02/08 18:16:35;;;;;;;;;;;;;;;23.08;18.20;97902.03;4952715;29;1417;-73
2022/02/08 18:19:09;;;;;;;;;;;;;;;23.36;18.07;97914.47;4937142;29;1092;-72
2022/02/08 18:21:39;;;;;;;;;;;;;;;23.36;18.12;97916.47;4951671;29;1021;-73
2022/02/08 19:07:52;;;;;;;;;;;;;;;23.23;17.85;98047.13;4900277;29;1250;-73
2022/02/08 19:23:45;;;;;;;;;;;;;;;23.49;17.97;98084.00;4846184;29;1023;-73
2022/02/08 19:26:12;;;;;;;;;;;;;;;23.13;18.08;98070.97;4845571;29;999;-73
2022/02/08 19:28:37;;;;;;;;;;;;;;;22.96;18.40;98078.78;4815643;29;1109;-73
2022/02/08 19:31:03;;;;;;;;;;;;;;;22.64;18.63;98076.91;4845746;29;988;-73
2022/02/08 19:33:29;;;;;;;;;;;;;;;22.83;18.82;98084.41;4847626;29;1968;-73
2022/02/08 19:35:55;;;;;;;;;;;;;;;23.10;18.19;98083.22;4845635;29;975;-73
2022/02/08 19:38:25;;;;;;;;;;;;;;;23.25;18.09;98084.34;4824196;29;1327;-73
2022/02/08 19:40:51;;;;;;;;;;;;;;;23.21;18.04;98083.69;4809465;29;998;-73
2022/02/08 19:43:16;;;;;;;;;;;;;;;23.07;18.52;98095.47;4816433;29;995;-73
2022/02/08 19:45:44;;;;;;;;;;;;;;;22.66;18.89;98088.56;4791491;29;1007;-73
2022/02/08 19:48:11;;;;;;;;;;;;;;;23.09;18.24;98092.97;4791419;29;1004;-73
2022/02/08 19:50:36;;;;;;;;;;;;;;;23.34;18.16;98087.31;4803803;29;1038;-73
2022/02/08 19:53:03;;;;;;;;;;;;;;;23.34;17.98;98087.31;4818436;29;1900;-73
2022/02/08 19:55:40;;;;;;;;;;;;;;;23.37;18.26;98091.28;4827120;29;988;-73
2022/02/08 19:58:11;;;;;;;;;;;;;;;22.96;18.53;98090.13;4860103;29;947;-73
2022/02/08 20:00:39;;;;;;;;;;;;;;;22.81;18.66;98089.75;4864166;29;995;-74
2022/02/08 20:03:07;;;;;;;;;;;;;;;22.88;18.39;98094.44;4889602;29;1097;-73
2022/02/08 20:05:33;;;;;;;;;;;;;;;23.30;18.23;98097.97;4900437;29;1012;-73
2022/02/08 20:07:59;;;;;;;;;;;;;;;23.22;17.93;98107.19;4918049;29;982;-73
2022/02/08 20:10:26;;;;;;;;;;;;;;;22.83;18.49;98104.25;4919557;29;970;-73
2022/02/08 20:12:52;;;;;;;;;;;;;;;22.67;18.60;98093.00;4919519;29;1272;-73
2022/02/08 20:15:19;;;;;;;;;;;;;;;23.27;18.20;98098.91;4925449;29;1903;-73
2022/02/08 20:17:46;;;;;;;;;;;;;;;23.49;18.00;98092.53;4939072;29;969;-73
2022/02/08 20:20:14;;;;;;;;;;;;;;;23.09;18.11;98088.09;4938603;29;1090;-73
2022/02/08 20:22:44;;;;;;;;;;;;;;;22.82;18.50;98099.03;4938821;29;1007;-73
2022/02/08 20:25:11;;;;;;;;;;;;;;;23.04;18.18;98107.72;4938715;29;1062;-73
2022/02/08 20:27:51;;;;;;;;;;;;;;;23.24;18.18;98099.78;4938876;29;1029;-73
2022/02/08 20:30:20;;;;;;;;;;;;;;;23.47;17.60;98101.50;4938424;29;1058;-73
2022/02/08 20:32:46;;;;;;;;;;;;;;;23.47;17.60;98103.56;4922636;29;1007;-73
2022/02/08 20:35:12;;;;;;;;;;;;;;;22.91;18.25;98104.09;4938551;29;1966;-73
2022/02/08 20:37:41;;;;;;;;;;;;;;;22.62;18.59;98104.91;4938578;29;1097;-73
2022/02/08 20:40:07;;;;;;;;;;;;;;;23.07;18.06;98101.16;4938666;29;1009;-73
2022/02/08 20:42:33;;;;;;;;;;;;;;;23.54;17.74;98104.09;4932593;29;954;-73
2022/02/08 20:44:59;;;;;;;;;;;;;;;23.19;18.00;98111.72;4983207;28;1013;-73
2022/02/08 20:47:26;;;;;;;;;;;;;;;22.76;18.66;98103.69;4998543;28;992;-73
2022/02/08 20:49:58;;;;;;;;;;;;;;;22.87;18.67;98099.28;4998648;28;972;-73
2022/02/08 20:52:26;;;;;;;;;;;;;;;23.57;17.55;98099.53;4998686;28;919;-73
2022/02/08 20:55:03;;;;;;;;;;;;;;;23.60;17.50;98093.75;4980453;28;1914;-73
2022/02/08 20:57:35;;;;;;;;;;;;;;;23.13;18.21;98102.97;4997446;28;925;-73
2022/02/08 21:00:08;;;;;;;;;;;;;;;22.84;18.56;98102.22;4980180;28;1061;-73
2022/02/08 21:02:40;;;;;;;;;;;;;;;23.24;18.08;98099.78;4998271;28;1030;-73
2022/02/08 21:07:41;;;;;;;;;;;;;;;23.13;18.11;98093.66;4997999;28;990;-73